Time;durP1;ratioP1;P1;durP2;ratioP2;P2;SDS_P1;SDS_P2;PMS_P1;PMS_P2;Temp;Humidity;BMP_temperature;BMP_pressure;BME280_temperature;BME280_humidity;BME280_pressure;Samples;Min_cycle;Max_cycle;Signal;HPM_P1;HPM_P2
2023/08/07 00:02:17;;;;;;;0.20;0.20;;;;;;;;;;5013828;28;20075;-67
2023/08/07 00:04:43;;;;;;;0.10;0.10;;;;;;;;;;5016287;28;20045;-67
2023/08/07 00:07:09;;;;;;;0.35;0.28;;;;;;;;;;5020635;28;20041;-67
2023/08/07 00:09:35;;;;;;;0.20;0.15;;;;;;;;;;5015801;28;20149;-67
2023/08/07 00:12:01;;;;;;;0.28;0.28;;;;;;;;;;5017535;28;20052;-67
2023/08/07 00:14:27;;;;;;;0.38;0.22;;;;;;;;;;5014573;28;20512;-67
2023/08/07 00:16:53;;;;;;;0.10;0.10;;;;;;;;;;5009886;28;20050;-66
2023/08/07 00:19:19;;;;;;;0.30;0.30;;;;;;;;;;5015268;28;20052;-67
2023/08/07 00:21:45;;;;;;;0.30;0.30;;;;;;;;;;5015679;28;20537;-67
2023/08/07 00:24:11;;;;;;;0.30;0.20;;;;;;;;;;5017103;28;20132;-66
2023/08/07 00:26:37;;;;;;;0.10;0.10;;;;;;;;;;5009894;28;20037;-66
2023/08/07 00:29:03;;;;;;;0.10;0.10;;;;;;;;;;5017532;28;20721;-66
2023/08/07 00:31:31;;;;;;;0.30;0.20;;;;;;;;;;5015854;28;20033;-67
2023/08/07 00:33:57;;;;;;;0.28;0.17;;;;;;;;;;5016578;28;20121;-67
2023/08/07 00:36:24;;;;;;;0.20;0.20;;;;;;;;;;5014753;28;20045;-66
2023/08/07 00:38:51;;;;;;;0.10;0.10;;;;;;;;;;5016740;28;20061;-66
2023/08/07 00:41:18;;;;;;;0.28;0.28;;;;;;;;;;5012112;28;20060;-66
2023/08/07 00:43:44;;;;;;;0.20;0.20;;;;;;;;;;5018068;28;20077;-66
2023/08/07 00:46:10;;;;;;;0.22;0.22;;;;;;;;;;5019025;28;20112;-66
2023/08/07 00:48:36;;;;;;;0.20;0.20;;;;;;;;;;5016454;28;20042;-66
2023/08/07 00:51:04;;;;;;;0.13;0.10;;;;;;;;;;5018279;28;20042;-66
2023/08/07 00:53:30;;;;;;;0.40;0.20;;;;;;;;;;5016564;28;20076;-67
2023/08/07 00:55:58;;;;;;;0.10;0.10;;;;;;;;;;5015222;28;20049;-67
2023/08/07 00:58:25;;;;;;;0.20;0.13;;;;;;;;;;5016182;28;20049;-67
2023/08/07 01:00:51;;;;;;;0.20;0.20;;;;;;;;;;5017624;28;20065;-67
2023/08/07 01:03:17;;;;;;;0.17;0.17;;;;;;;;;;5018216;28;20704;-66
2023/08/07 01:05:43;;;;;;;0.00;0.00;;;;;;;;;;5019490;28;20052;-66
2023/08/07 01:08:09;;;;;;;0.22;0.20;;;;;;;;;;5012129;28;20077;-66
2023/08/07 01:10:38;;;;;;;0.50;0.30;;;;;;;;;;5016333;28;20045;-66
2023/08/07 01:13:09;;;;;;;0.15;0.10;;;;;;;;;;5017579;28;20033;-66
2023/08/07 01:15:37;;;;;;;0.22;0.20;;;;;;;;;;5012336;28;20487;-66
2023/08/07 01:18:04;;;;;;;0.10;0.10;;;;;;;;;;5012351;28;20091;-67
2023/08/07 01:20:31;;;;;;;0.20;0.20;;;;;;;;;;5012377;28;20045;-66
2023/08/07 01:22:57;;;;;;;0.20;0.10;;;;;;;;;;5011168;28;20048;-66
2023/08/07 01:25:23;;;;;;;0.10;0.10;;;;;;;;;;5015448;28;20045;-66
2023/08/07 01:27:58;;;;;;;0.30;0.30;;;;;;;;;;5015666;28;20434;-66
2023/08/07 01:30:30;;;;;;;0.28;0.25;;;;;;;;;;5013727;28;20539;-67
2023/08/07 01:33:03;;;;;;;0.40;0.30;;;;;;;;;;5013931;28;20053;-67
2023/08/07 01:35:39;;;;;;;0.10;0.10;;;;;;;;;;5015536;28;20041;-67
2023/08/07 01:38:05;;;;;;;0.10;0.10;;;;;;;;;;5019441;28;20033;-66
2023/08/07 01:40:32;;;;;;;0.25;0.25;;;;;;;;;;5016261;28;20396;-66
2023/08/07 01:42:58;;;;;;;0.40;0.20;;;;;;;;;;5017768;28;20042;-66
2023/08/07 01:45:28;;;;;;;0.20;0.20;;;;;;;;;;5016829;28;20064;-66
2023/08/07 01:47:54;;;;;;;0.35;0.30;;;;;;;;;;5013963;28;20064;-66
2023/08/07 01:50:20;;;;;;;0.28;0.28;;;;;;;;;;5016891;28;20042;-66
2023/08/07 01:52:47;;;;;;;0.35;0.22;;;;;;;;;;5014004;28;20107;-67
2023/08/07 01:55:16;;;;;;;1.48;0.30;;;;;;;;;;5013339;28;20097;-67
2023/08/07 01:57:42;;;;;;;0.20;0.20;;;;;;;;;;5007840;28;20112;-67
2023/08/07 02:00:08;;;;;;;0.20;0.20;;;;;;;;;;5013386;28;20037;-67
2023/08/07 02:02:35;;;;;;;0.20;0.20;;;;;;;;;;5011910;28;20101;-66
2023/08/07 02:05:01;;;;;;;0.20;0.20;;;;;;;;;;5010471;28;20525;-66
2023/08/07 02:07:28;;;;;;;0.57;0.10;;;;;;;;;;5015207;28;20037;-66
2023/08/07 02:09:54;;;;;;;0.20;0.17;;;;;;;;;;5017715;28;20069;-67
2023/08/07 02:12:20;;;;;;;0.40;0.40;;;;;;;;;;5015602;28;20072;-66
2023/08/07 02:14:46;;;;;;;0.63;0.28;;;;;;;;;;5011673;28;20142;-66
2023/08/07 02:17:11;;;;;;;0.20;0.20;;;;;;;;;;5010972;28;20613;-66
2023/08/07 02:19:37;;;;;;;0.30;0.25;;;;;;;;;;5015242;28;20045;-66
2023/08/07 02:22:04;;;;;;;0.20;0.10;;;;;;;;;;5011856;28;20124;-66
2023/08/07 02:24:30;;;;;;;0.20;0.10;;;;;;;;;;5014560;28;20041;-66
2023/08/07 02:26:56;;;;;;;0.40;0.20;;;;;;;;;;5013580;28;20057;-66
2023/08/07 02:29:22;;;;;;;0.10;0.10;;;;;;;;;;5015170;28;20037;-67
2023/08/07 02:31:48;;;;;;;0.17;0.17;;;;;;;;;;5012055;28;20752;-67
2023/08/07 02:34:14;;;;;;;0.13;0.10;;;;;;;;;;5008981;28;20042;-67
2023/08/07 02:36:40;;;;;;;0.45;0.32;;;;;;;;;;5008546;28;20049;-67
2023/08/07 02:39:07;;;;;;;0.22;0.20;;;;;;;;;;5013333;28;21042;-67
2023/08/07 02:41:33;;;;;;;0.40;0.30;;;;;;;;;;5014444;28;20048;-67
2023/08/07 02:43:59;;;;;;;0.28;0.25;;;;;;;;;;5016135;28;20063;-67
2023/08/07 02:46:25;;;;;;;0.20;0.13;;;;;;;;;;5013242;28;20491;-67
2023/08/07 02:48:52;;;;;;;0.40;0.40;;;;;;;;;;5012267;28;20141;-66
2023/08/07 02:51:18;;;;;;;0.22;0.22;;;;;;;;;;5013157;28;20688;-67
2023/08/07 02:53:44;;;;;;;0.35;0.28;;;;;;;;;;5015261;28;20061;-67
2023/08/07 02:56:10;;;;;;;0.35;0.10;;;;;;;;;;5015293;28;20057;-67
2023/08/07 02:58:36;;;;;;;0.20;0.10;;;;;;;;;;5012388;28;20055;-67
2023/08/07 03:01:08;;;;;;;0.40;0.20;;;;;;;;;;5013311;28;20044;-67
2023/08/07 03:03:34;;;;;;;0.70;0.17;;;;;;;;;;5014244;28;20050;-67
2023/08/07 03:06:01;;;;;;;0.40;0.20;;;;;;;;;;5013023;28;20041;-67
2023/08/07 03:08:27;;;;;;;0.20;0.13;;;;;;;;;;5019674;28;20045;-67
2023/08/07 03:10:53;;;;;;;0.10;0.10;;;;;;;;;;5012755;28;20114;-67
2023/08/07 03:13:20;;;;;;;0.30;0.13;;;;;;;;;;5012105;28;20034;-67
2023/08/07 03:15:46;;;;;;;0.28;0.20;;;;;;;;;;5012864;28;20058;-67
2023/08/07 03:18:12;;;;;;;0.10;0.10;;;;;;;;;;5018171;28;20042;-67
2023/08/07 03:20:38;;;;;;;0.20;0.20;;;;;;;;;;5024306;28;20034;-66
2023/08/07 03:23:04;;;;;;;0.10;0.10;;;;;;;;;;5016881;28;20052;-66
2023/08/07 03:25:30;;;;;;;0.32;0.10;;;;;;;;;;5016827;28;20042;-66
2023/08/07 03:27:56;;;;;;;0.38;0.17;;;;;;;;;;5015786;28;20053;-66
2023/08/07 03:30:22;;;;;;;0.00;0.00;;;;;;;;;;5021273;28;20110;-67
2023/08/07 03:32:49;;;;;;;0.20;0.10;;;;;;;;;;5013891;28;20117;-66
2023/08/07 03:35:15;;;;;;;0.08;0.08;;;;;;;;;;5018141;28;20053;-66
2023/08/07 03:37:41;;;;;;;2.08;1.35;;;;;;;;;;5018599;28;20080;-66
2023/08/07 03:40:08;;;;;;;2.03;0.70;;;;;;;;;;5018462;28;20069;-66
2023/08/07 03:42:34;;;;;;;1.08;0.70;;;;;;;;;;5019095;28;20034;-66
2023/08/07 03:45:00;;;;;;;0.65;0.52;;;;;;;;;;5019743;28;20045;-66
2023/08/07 03:47:26;;;;;;;0.55;0.28;;;;;;;;;;5018236;28;20443;-66
2023/08/07 03:49:52;;;;;;;0.30;0.30;;;;;;;;;;5018155;28;20049;-66
2023/08/07 03:52:18;;;;;;;1.30;0.43;;;;;;;;;;5017637;28;20046;-67
2023/08/07 03:54:44;;;;;;;0.25;0.25;;;;;;;;;;5014066;28;20069;-66
2023/08/07 03:57:10;;;;;;;0.28;0.28;;;;;;;;;;5014824;28;20603;-66
2023/08/07 03:59:37;;;;;;;0.68;0.30;;;;;;;;;;5018313;28;20060;-66
2023/08/07 04:02:03;;;;;;;0.90;0.40;;;;;;;;;;5020516;28;20689;-66
2023/08/07 04:04:29;;;;;;;1.95;0.38;;;;;;;;;;5012642;28;20038;-66
2023/08/07 04:06:55;;;;;;;0.70;0.30;;;;;;;;;;5017702;28;20037;-66
2023/08/07 04:09:21;;;;;;;1.15;0.60;;;;;;;;;;5015076;28;20038;-66
2023/08/07 04:11:47;;;;;;;0.25;0.20;;;;;;;;;;5011763;28;20695;-66
2023/08/07 04:14:13;;;;;;;0.38;0.30;;;;;;;;;;5012615;28;20649;-66
2023/08/07 04:16:39;;;;;;;1.00;0.57;;;;;;;;;;5018787;28;20099;-66
2023/08/07 04:19:07;;;;;;;0.30;0.20;;;;;;;;;;5015066;28;20037;-66
2023/08/07 04:21:33;;;;;;;0.93;0.32;;;;;;;;;;5014281;28;20673;-67
2023/08/07 04:24:10;;;;;;;0.55;0.38;;;;;;;;;;5017337;28;20484;-67
2023/08/07 04:26:36;;;;;;;0.10;0.10;;;;;;;;;;5018338;28;20046;-66
2023/08/07 04:29:03;;;;;;;1.75;0.20;;;;;;;;;;5017272;28;20049;-66
2023/08/07 04:31:31;;;;;;;0.30;0.30;;;;;;;;;;5014449;28;20049;-66
2023/08/07 04:33:57;;;;;;;0.47;0.10;;;;;;;;;;5014578;28;20050;-66
2023/08/07 04:36:23;;;;;;;1.25;0.40;;;;;;;;;;5017708;28;20052;-66
2023/08/07 04:38:50;;;;;;;2.25;0.80;;;;;;;;;;5018038;28;20610;-67
2023/08/07 04:41:16;;;;;;;0.85;0.45;;;;;;;;;;5015747;28;20135;-66
2023/08/07 04:43:45;;;;;;;1.35;0.80;;;;;;;;;;5015361;28;20085;-67
2023/08/07 04:46:12;;;;;;;0.45;0.45;;;;;;;;;;5021427;28;20041;-67
2023/08/07 04:48:38;;;;;;;0.57;0.35;;;;;;;;;;5022493;28;20804;-67
2023/08/07 04:51:04;;;;;;;0.65;0.40;;;;;;;;;;5021440;28;20140;-67
2023/08/07 04:53:30;;;;;;;0.85;0.60;;;;;;;;;;5014755;28;20133;-67
2023/08/07 04:55:56;;;;;;;0.40;0.40;;;;;;;;;;5013759;28;20057;-67
2023/08/07 04:58:22;;;;;;;0.50;0.40;;;;;;;;;;5016311;28;20052;-67
2023/08/07 05:00:48;;;;;;;0.40;0.40;;;;;;;;;;5012118;28;20045;-67
2023/08/07 05:03:15;;;;;;;0.47;0.35;;;;;;;;;;5017549;28;20034;-67
2023/08/07 05:05:41;;;;;;;1.00;0.43;;;;;;;;;;5021655;28;20049;-67
2023/08/07 05:08:07;;;;;;;0.93;0.40;;;;;;;;;;5014247;28;20095;-67
2023/08/07 05:10:33;;;;;;;1.38;0.60;;;;;;;;;;5015040;28;20091;-67
2023/08/07 05:12:59;;;;;;;0.93;0.43;;;;;;;;;;5017612;28;20175;-67
2023/08/07 05:15:28;;;;;;;0.55;0.30;;;;;;;;;;5010244;28;20049;-66
2023/08/07 05:17:54;;;;;;;1.10;0.90;;;;;;;;;;5016948;28;20148;-66
2023/08/07 05:20:20;;;;;;;2.45;0.93;;;;;;;;;;5011997;28;20034;-67
2023/08/07 05:22:46;;;;;;;0.85;0.73;;;;;;;;;;5019925;28;20419;-67
2023/08/07 05:25:15;;;;;;;0.45;0.45;;;;;;;;;;5009262;28;20175;-67
2023/08/07 05:27:41;;;;;;;1.15;0.65;;;;;;;;;;5018466;28;20116;-67
2023/08/07 05:30:08;;;;;;;0.88;0.55;;;;;;;;;;5016179;28;20056;-67
2023/08/07 05:32:37;;;;;;;0.70;0.40;;;;;;;;;;5017851;28;20116;-67
2023/08/07 05:35:03;;;;;;;2.97;0.98;;;;;;;;;;5016189;28;20567;-67
2023/08/07 05:37:31;;;;;;;0.82;0.50;;;;;;;;;;5013396;28;20091;-67
2023/08/07 05:39:57;;;;;;;0.45;0.40;;;;;;;;;;5014143;28;20050;-67
2023/08/07 05:42:23;;;;;;;0.60;0.60;;;;;;;;;;5015373;28;20586;-67
2023/08/07 05:44:49;;;;;;;1.52;0.75;;;;;;;;;;5016922;28;20404;-67
2023/08/07 05:47:15;;;;;;;0.80;0.80;;;;;;;;;;5013489;28;20050;-67
2023/08/07 05:49:42;;;;;;;1.08;0.57;;;;;;;;;;5010045;28;20088;-67
2023/08/07 05:52:08;;;;;;;1.13;0.73;;;;;;;;;;5014292;28;20042;-67
2023/08/07 05:54:34;;;;;;;1.50;0.90;;;;;;;;;;5021746;28;20056;-67
2023/08/07 05:57:00;;;;;;;1.30;0.68;;;;;;;;;;5015037;28;20052;-67
2023/08/07 05:59:26;;;;;;;0.77;0.60;;;;;;;;;;5015514;28;20046;-67
2023/08/07 06:01:52;;;;;;;0.80;0.68;;;;;;;;;;5011497;28;20075;-67
2023/08/07 06:04:18;;;;;;;0.63;0.50;;;;;;;;;;5014968;28;20124;-67
2023/08/07 06:06:45;;;;;;;0.93;0.77;;;;;;;;;;5013772;28;20049;-67
2023/08/07 06:09:12;;;;;;;1.63;0.90;;;;;;;;;;5019461;28;20136;-67
2023/08/07 06:11:38;;;;;;;1.50;0.80;;;;;;;;;;5009513;28;20041;-67
2023/08/07 06:14:04;;;;;;;1.20;0.50;;;;;;;;;;5011859;28;20329;-67
2023/08/07 06:16:30;;;;;;;2.03;1.17;;;;;;;;;;5014680;28;20053;-67
2023/08/07 06:18:56;;;;;;;0.75;0.65;;;;;;;;;;5017556;28;20049;-67
2023/08/07 06:21:23;;;;;;;0.47;0.47;;;;;;;;;;5018446;28;20475;-67
2023/08/07 06:23:49;;;;;;;0.75;0.50;;;;;;;;;;5011092;28;20129;-64
2023/08/07 06:26:15;;;;;;;3.03;1.10;;;;;;;;;;5007121;28;20068;-65
2023/08/07 06:28:42;;;;;;;1.73;0.73;;;;;;;;;;5012846;28;20123;-65
2023/08/07 06:31:09;;;;;;;1.65;0.90;;;;;;;;;;5015614;28;20513;-65
2023/08/07 06:33:35;;;;;;;1.23;0.80;;;;;;;;;;5012041;28;20042;-66
2023/08/07 06:36:01;;;;;;;0.95;0.60;;;;;;;;;;5012631;28;20092;-66
2023/08/07 06:38:27;;;;;;;1.08;0.75;;;;;;;;;;5008077;28;20052;-66
2023/08/07 06:40:53;;;;;;;2.30;1.00;;;;;;;;;;5007606;28;20656;-64
2023/08/07 06:43:19;;;;;;;5.45;1.42;;;;;;;;;;5005609;28;20096;-62
2023/08/07 06:45:52;;;;;;;2.45;1.30;;;;;;;;;;5008401;28;20037;-62
2023/08/07 06:48:19;;;;;;;1.60;0.60;;;;;;;;;;5016593;28;20033;-66
2023/08/07 06:50:46;;;;;;;1.55;0.60;;;;;;;;;;5010907;28;20420;-66
2023/08/07 06:53:12;;;;;;;0.52;0.43;;;;;;;;;;5012718;28;20073;-66
2023/08/07 06:55:38;;;;;;;2.35;1.00;;;;;;;;;;5013209;28;20479;-66
2023/08/07 06:58:04;;;;;;;1.83;0.88;;;;;;;;;;5019326;28;20506;-66
2023/08/07 07:00:31;;;;;;;1.95;0.85;;;;;;;;;;5017180;28;20038;-66
2023/08/07 07:02:57;;;;;;;2.85;1.25;;;;;;;;;;5019053;28;20049;-67
2023/08/07 07:05:23;;;;;;;2.90;1.25;;;;;;;;;;5019598;28;20736;-67
2023/08/07 07:07:49;;;;;;;1.95;0.98;;;;;;;;;;5017658;28;20041;-64
2023/08/07 07:10:15;;;;;;;0.65;0.60;;;;;;;;;;5013242;28;20141;-64
2023/08/07 07:12:41;;;;;;;0.63;0.50;;;;;;;;;;5010875;28;20141;-63
2023/08/07 07:15:08;;;;;;;1.75;0.77;;;;;;;;;;5017435;28;20386;-64
2023/08/07 07:17:34;;;;;;;4.50;1.55;;;;;;;;;;5022695;28;20045;-64
2023/08/07 07:20:00;;;;;;;2.78;1.85;;;;;;;;;;5011686;28;20774;-64
2023/08/07 07:22:28;;;;;;;1.85;1.27;;;;;;;;;;5010590;28;20074;-64
2023/08/07 07:24:54;;;;;;;1.55;1.20;;;;;;;;;;5011943;28;20061;-63
2023/08/07 07:27:22;;;;;;;2.63;1.25;;;;;;;;;;5015409;28;20080;-64
2023/08/07 07:29:48;;;;;;;1.70;0.95;;;;;;;;;;5015527;28;20478;-64
2023/08/07 07:32:14;;;;;;;2.25;1.33;;;;;;;;;;5015847;28;20419;-63
2023/08/07 07:34:40;;;;;;;1.38;1.00;;;;;;;;;;5015914;28;20145;-63
2023/08/07 07:37:06;;;;;;;1.58;0.95;;;;;;;;;;5013847;28;20622;-63
2023/08/07 07:39:32;;;;;;;2.28;1.13;;;;;;;;;;5012650;28;20073;-63
2023/08/07 07:41:58;;;;;;;1.50;1.17;;;;;;;;;;5011178;28;20046;-63
2023/08/07 07:44:24;;;;;;;3.55;2.25;;;;;;;;;;5014816;28;20041;-63
2023/08/07 07:46:50;;;;;;;5.53;1.95;;;;;;;;;;5015589;28;20539;-63
2023/08/07 07:49:16;;;;;;;1.95;1.40;;;;;;;;;;5013677;28;20055;-63
2023/08/07 07:51:44;;;;;;;3.28;2.08;;;;;;;;;;5012517;28;20527;-63
2023/08/07 07:54:10;;;;;;;3.60;1.80;;;;;;;;;;5011917;28;20527;-63
2023/08/07 07:56:37;;;;;;;3.22;1.70;;;;;;;;;;5014738;28;20129;-63
2023/08/07 07:59:03;;;;;;;1.75;1.30;;;;;;;;;;5015402;28;20053;-63
2023/08/07 08:01:29;;;;;;;1.67;1.20;;;;;;;;;;5014102;28;20049;-63
2023/08/07 08:03:55;;;;;;;2.50;1.10;;;;;;;;;;5011885;28;20049;-63
2023/08/07 08:06:21;;;;;;;1.35;1.08;;;;;;;;;;5013679;28;20045;-63
2023/08/07 08:08:47;;;;;;;2.53;1.20;;;;;;;;;;5018562;28;20053;-63
2023/08/07 08:11:14;;;;;;;3.80;1.65;;;;;;;;;;5018170;28;20044;-63
2023/08/07 08:13:41;;;;;;;3.10;1.75;;;;;;;;;;5017566;28;20531;-64
2023/08/07 08:16:07;;;;;;;1.40;0.95;;;;;;;;;;5015719;28;20177;-64
2023/08/07 08:18:33;;;;;;;1.45;0.75;;;;;;;;;;5015557;28;20046;-63
2023/08/07 08:20:59;;;;;;;0.85;0.77;;;;;;;;;;5018179;28;20115;-63
2023/08/07 08:23:25;;;;;;;2.13;1.23;;;;;;;;;;5018360;28;20636;-64
2023/08/07 08:25:51;;;;;;;2.63;1.23;;;;;;;;;;5016958;28;20037;-64
2023/08/07 08:28:18;;;;;;;2.17;1.20;;;;;;;;;;5015646;28;20050;-64
2023/08/07 08:30:44;;;;;;;3.35;1.15;;;;;;;;;;5015743;28;20447;-63
2023/08/07 08:33:12;;;;;;;4.05;2.17;;;;;;;;;;5017110;28;20042;-63
2023/08/07 08:35:38;;;;;;;2.33;1.33;;;;;;;;;;5018808;28;20064;-63
2023/08/07 08:38:04;;;;;;;6.35;2.28;;;;;;;;;;5017435;28;20116;-63
2023/08/07 08:40:34;;;;;;;8.63;2.30;;;;;;;;;;5014331;28;20492;-63
2023/08/07 08:43:05;;;;;;;3.97;1.90;;;;;;;;;;5015068;28;20065;-63
2023/08/07 08:45:37;;;;;;;2.10;1.70;;;;;;;;;;5008896;28;20085;-63
2023/08/07 08:48:04;;;;;;;5.88;2.15;;;;;;;;;;5017406;28;20037;-63
2023/08/07 08:50:31;;;;;;;6.78;2.10;;;;;;;;;;5023026;28;20037;-63
2023/08/07 08:52:57;;;;;;;4.38;1.85;;;;;;;;;;5014112;28;20054;-63
2023/08/07 08:55:23;;;;;;;4.75;1.90;;;;;;;;;;5015638;28;20058;-63
2023/08/07 08:57:50;;;;;;;3.55;1.92;;;;;;;;;;5018023;28;20092;-63
2023/08/07 09:00:20;;;;;;;4.75;1.88;;;;;;;;;;5017077;28;20425;-63
2023/08/07 09:02:47;;;;;;;3.00;1.92;;;;;;;;;;5018096;28;20086;-63
2023/08/07 09:05:15;;;;;;;3.20;1.95;;;;;;;;;;5017412;28;20045;-63
2023/08/07 09:07:41;;;;;;;6.78;2.50;;;;;;;;;;5014933;28;20598;-63
2023/08/07 09:10:08;;;;;;;5.85;2.25;;;;;;;;;;5014510;28;20077;-63
2023/08/07 09:12:34;;;;;;;2.85;1.55;;;;;;;;;;5015626;28;20041;-63
2023/08/07 09:15:03;;;;;;;2.90;1.52;;;;;;;;;;5017155;28;20053;-63
2023/08/07 09:17:29;;;;;;;2.70;1.55;;;;;;;;;;5017134;28;20049;-63
2023/08/07 09:19:55;;;;;;;5.28;2.30;;;;;;;;;;5015228;28;20111;-63
2023/08/07 09:22:21;;;;;;;4.55;2.38;;;;;;;;;;5013577;28;20129;-63
2023/08/07 09:24:48;;;;;;;2.92;1.90;;;;;;;;;;5014937;28;20069;-63
2023/08/07 09:27:14;;;;;;;3.72;2.00;;;;;;;;;;5017198;28;20037;-63
2023/08/07 09:29:40;;;;;;;5.55;1.95;;;;;;;;;;5016674;28;20472;-63
2023/08/07 09:32:10;;;;;;;5.15;2.10;;;;;;;;;;5014967;28;20507;-63
2023/08/07 09:34:36;;;;;;;5.72;1.88;;;;;;;;;;5014154;28;20551;-63
2023/08/07 09:37:02;;;;;;;5.95;2.15;;;;;;;;;;5015603;28;20084;-63
2023/08/07 09:39:30;;;;;;;2.95;1.80;;;;;;;;;;5018127;28;21090;-63
2023/08/07 09:41:56;;;;;;;4.53;1.83;;;;;;;;;;5017365;28;20037;-63
2023/08/07 09:44:22;;;;;;;4.15;1.88;;;;;;;;;;5014123;28;20044;-63
2023/08/07 09:46:48;;;;;;;5.40;1.48;;;;;;;;;;5013614;28;20121;-63
2023/08/07 09:49:14;;;;;;;2.85;1.65;;;;;;;;;;5013956;28;20129;-63
2023/08/07 09:51:43;;;;;;;3.28;1.85;;;;;;;;;;5016879;28;20630;-63
2023/08/07 09:54:09;;;;;;;5.07;1.80;;;;;;;;;;5016305;28;20049;-63
2023/08/07 09:56:36;;;;;;;4.47;1.63;;;;;;;;;;5013339;28;20046;-63
2023/08/07 09:59:02;;;;;;;2.13;1.40;;;;;;;;;;5013485;28;20049;-63
2023/08/07 10:01:28;;;;;;;3.70;1.60;;;;;;;;;;5014746;28;20052;-63
2023/08/07 10:03:55;;;;;;;6.60;2.78;;;;;;;;;;5016399;28;20045;-63
2023/08/07 10:06:22;;;;;;;3.85;2.20;;;;;;;;;;5016306;28;20048;-63
2023/08/07 10:08:48;;;;;;;4.28;2.05;;;;;;;;;;5016727;28;20042;-63
2023/08/07 10:11:14;;;;;;;6.53;2.25;;;;;;;;;;5015727;28;20077;-63
2023/08/07 10:13:41;;;;;;;2.75;1.55;;;;;;;;;;5014868;28;20069;-63
2023/08/07 10:16:07;;;;;;;4.50;1.77;;;;;;;;;;5016666;28;20088;-63
2023/08/07 10:18:34;;;;;;;7.68;2.67;;;;;;;;;;5016378;28;20091;-63
2023/08/07 10:21:01;;;;;;;4.05;1.90;;;;;;;;;;5016522;28;20037;-63
2023/08/07 10:23:27;;;;;;;3.63;1.98;;;;;;;;;;5016288;28;20048;-63
2023/08/07 10:25:54;;;;;;;5.38;2.05;;;;;;;;;;5014144;28;20095;-63
2023/08/07 10:28:20;;;;;;;3.67;1.90;;;;;;;;;;5012261;28;20083;-63
2023/08/07 10:30:48;;;;;;;4.13;2.17;;;;;;;;;;5012708;28;20053;-63
2023/08/07 10:33:15;;;;;;;9.15;2.15;;;;;;;;;;5016903;28;20044;-63
2023/08/07 10:35:46;;;;;;;4.90;2.00;;;;;;;;;;5016385;28;20041;-63
2023/08/07 10:38:12;;;;;;;2.97;1.58;;;;;;;;;;5013347;28;20050;-63
2023/08/07 10:40:57;;;;;;;4.35;2.20;;;;;;;;;;5013299;28;20044;-63
2023/08/07 10:43:24;;;;;;;1.60;1.27;;;;;;;;;;5015949;28;20132;-63
2023/08/07 10:45:50;;;;;;;4.85;1.50;;;;;;;;;;5015600;28;20038;-63
2023/08/07 10:48:19;;;;;;;1.50;1.17;;;;;;;;;;5013985;28;20111;-63
2023/08/07 10:50:54;;;;;;;2.75;1.10;;;;;;;;;;5012709;28;20381;-63
2023/08/07 10:53:21;;;;;;;1.00;0.82;;;;;;;;;;5013396;28;20033;-63
2023/08/07 10:55:48;;;;;;;1.88;1.25;;;;;;;;;;5016128;28;20046;-63
2023/08/07 10:58:23;;;;;;;2.53;1.20;;;;;;;;;;5015845;28;20049;-63
2023/08/07 11:00:50;;;;;;;4.03;1.73;;;;;;;;;;5011744;28;20052;-63
2023/08/07 11:03:28;;;;;;;2.90;1.65;;;;;;;;;;5012337;28;20084;-63
2023/08/07 11:05:54;;;;;;;6.05;1.33;;;;;;;;;;5011933;28;20117;-63
2023/08/07 11:08:24;;;;;;;1.75;1.13;;;;;;;;;;5012269;28;20046;-63
2023/08/07 11:10:54;;;;;;;3.20;1.40;;;;;;;;;;5012980;28;20038;-63
2023/08/07 11:13:20;;;;;;;3.22;1.67;;;;;;;;;;5011509;28;20145;-63
2023/08/07 11:15:47;;;;;;;6.57;2.08;;;;;;;;;;5014167;28;20081;-63
2023/08/07 11:18:13;;;;;;;4.63;1.67;;;;;;;;;;5016124;28;20037;-63
2023/08/07 11:20:39;;;;;;;3.13;1.38;;;;;;;;;;5019401;28;20270;-63
2023/08/07 11:23:06;;;;;;;3.17;1.55;;;;;;;;;;5012453;28;20038;-63
2023/08/07 11:25:32;;;;;;;2.58;1.73;;;;;;;;;;5012448;28;20116;-63
2023/08/07 11:27:59;;;;;;;3.30;1.10;;;;;;;;;;5013847;28;20124;-63
2023/08/07 11:30:25;;;;;;;3.03;1.45;;;;;;;;;;5015405;28;20037;-63
2023/08/07 11:32:51;;;;;;;2.85;1.15;;;;;;;;;;5015300;28;20045;-63
2023/08/07 11:35:17;;;;;;;3.95;1.58;;;;;;;;;;5011468;28;20042;-63
2023/08/07 11:37:50;;;;;;;3.05;1.70;;;;;;;;;;5012448;28;20125;-63
2023/08/07 11:40:16;;;;;;;2.03;1.60;;;;;;;;;;5016614;28;20049;-63
2023/08/07 11:42:42;;;;;;;2.15;1.17;;;;;;;;;;5018590;28;20045;-63
2023/08/07 11:45:09;;;;;;;2.42;1.00;;;;;;;;;;5018584;28;20064;-63
2023/08/07 11:47:35;;;;;;;1.25;1.15;;;;;;;;;;5016496;28;20038;-63
2023/08/07 11:50:02;;;;;;;1.23;0.90;;;;;;;;;;5015785;28;20038;-63
2023/08/07 11:52:28;;;;;;;0.88;0.70;;;;;;;;;;5018867;28;20042;-63
2023/08/07 11:54:54;;;;;;;3.20;1.10;;;;;;;;;;5018901;28;20558;-63
2023/08/07 11:57:23;;;;;;;2.70;0.98;;;;;;;;;;5017668;28;20045;-63
2023/08/07 11:59:52;;;;;;;1.88;1.00;;;;;;;;;;5018815;28;20053;-63
2023/08/07 12:02:23;;;;;;;3.10;1.40;;;;;;;;;;5018224;28;20101;-63
2023/08/07 12:04:49;;;;;;;1.87;1.07;;;;;;;;;;5002055;28;20045;-63
2023/08/07 12:07:19;;;;;;;1.90;1.10;;;;;;;;;;5020313;28;20060;-63
2023/08/07 12:09:45;;;;;;;1.52;1.00;;;;;;;;;;5017518;28;20092;-63
2023/08/07 12:12:11;;;;;;;1.20;0.90;;;;;;;;;;5018510;28;20045;-63
2023/08/07 12:14:40;;;;;;;1.48;0.95;;;;;;;;;;5017958;28;20037;-63
2023/08/07 12:17:06;;;;;;;2.35;1.27;;;;;;;;;;5014957;28;20049;-63
2023/08/07 12:19:36;;;;;;;2.60;1.25;;;;;;;;;;5015796;28;20173;-63
2023/08/07 12:22:04;;;;;;;2.53;1.55;;;;;;;;;;5018433;28;20099;-63
2023/08/07 12:24:30;;;;;;;2.80;1.52;;;;;;;;;;5017919;28;20052;-63
2023/08/07 12:26:56;;;;;;;2.58;1.10;;;;;;;;;;5016805;28;20038;-63
2023/08/07 12:29:23;;;;;;;2.60;1.30;;;;;;;;;;5014891;28;20053;-63
2023/08/07 12:31:49;;;;;;;2.78;1.20;;;;;;;;;;5014826;28;20116;-63
2023/08/07 12:34:16;;;;;;;1.58;1.15;;;;;;;;;;5018252;28;20125;-63
2023/08/07 12:36:42;;;;;;;1.52;1.00;;;;;;;;;;5018473;28;20045;-63
2023/08/07 12:39:09;;;;;;;3.42;1.10;;;;;;;;;;5017023;28;20053;-63
2023/08/07 12:41:35;;;;;;;5.57;1.60;;;;;;;;;;5016092;28;20068;-63
2023/08/07 12:44:01;;;;;;;3.97;2.10;;;;;;;;;;5015396;28;20468;-63
2023/08/07 12:46:27;;;;;;;5.00;1.80;;;;;;;;;;5014376;28;20045;-63
2023/08/07 12:48:53;;;;;;;3.17;1.70;;;;;;;;;;5014342;28;20095;-63
2023/08/07 12:51:19;;;;;;;2.65;1.55;;;;;;;;;;5014339;28;20038;-63
2023/08/07 12:53:45;;;;;;;6.93;2.00;;;;;;;;;;5016922;28;20057;-63
2023/08/07 12:56:11;;;;;;;2.85;1.80;;;;;;;;;;5017130;28;20067;-63
2023/08/07 12:58:37;;;;;;;5.47;2.50;;;;;;;;;;5013355;28;20439;-63
2023/08/07 13:01:04;;;;;;;4.75;1.80;;;;;;;;;;5014361;28;20121;-63
2023/08/07 13:03:30;;;;;;;3.33;1.80;;;;;;;;;;5015442;28;20125;-63
2023/08/07 13:05:56;;;;;;;2.35;1.60;;;;;;;;;;5016991;28;20488;-63
2023/08/07 13:08:22;;;;;;;3.65;1.90;;;;;;;;;;5017300;28;20041;-63
2023/08/07 13:10:48;;;;;;;3.70;2.47;;;;;;;;;;5015091;28;20049;-63
2023/08/07 13:13:14;;;;;;;4.05;1.80;;;;;;;;;;5013690;28;20034;-63
2023/08/07 13:15:40;;;;;;;2.55;2.00;;;;;;;;;;5015676;28;20797;-63
2023/08/07 13:18:06;;;;;;;3.58;1.50;;;;;;;;;;5017985;28;20046;-64
2023/08/07 13:20:33;;;;;;;2.63;1.73;;;;;;;;;;5017318;28;20048;-63
2023/08/07 13:23:01;;;;;;;2.72;1.40;;;;;;;;;;5015352;28;20042;-63
2023/08/07 13:25:27;;;;;;;3.05;1.80;;;;;;;;;;5014555;28;20058;-63
2023/08/07 13:27:53;;;;;;;1.48;1.20;;;;;;;;;;5014828;28;20045;-63
2023/08/07 13:30:19;;;;;;;2.75;2.00;;;;;;;;;;5017312;28;20110;-63
2023/08/07 13:32:45;;;;;;;4.30;2.25;;;;;;;;;;5017642;28;20118;-63
2023/08/07 13:35:12;;;;;;;4.13;1.98;;;;;;;;;;5014652;28;20080;-63
2023/08/07 13:37:38;;;;;;;2.72;1.67;;;;;;;;;;5014686;28;20049;-63
2023/08/07 13:40:05;;;;;;;4.15;2.10;;;;;;;;;;5016451;28;20038;-63
2023/08/07 13:42:31;;;;;;;3.45;1.92;;;;;;;;;;5018502;28;20034;-63
2023/08/07 13:44:58;;;;;;;3.72;1.67;;;;;;;;;;5018679;28;20713;-63
2023/08/07 13:47:25;;;;;;;5.15;2.22;;;;;;;;;;5017093;28;20065;-63
2023/08/07 13:49:52;;;;;;;4.78;2.35;;;;;;;;;;5018828;28;20127;-63
2023/08/07 13:52:19;;;;;;;3.65;1.92;;;;;;;;;;5014516;28;20057;-63
2023/08/07 13:54:45;;;;;;;3.40;1.90;;;;;;;;;;5016019;28;20053;-63
2023/08/07 13:57:11;;;;;;;2.55;1.70;;;;;;;;;;5017122;28;20412;-63
2023/08/07 13:59:37;;;;;;;3.83;1.92;;;;;;;;;;5013645;28;20292;-63
2023/08/07 14:02:03;;;;;;;3.45;2.10;;;;;;;;;;5013097;28;20050;-63
2023/08/07 14:04:29;;;;;;;3.92;2.33;;;;;;;;;;5013170;28;20431;-63
2023/08/07 14:06:55;;;;;;;8.05;2.25;;;;;;;;;;5016640;28;20041;-63
2023/08/07 14:09:21;;;;;;;6.10;2.10;;;;;;;;;;5014640;28;20260;-63
2023/08/07 14:11:48;;;;;;;4.50;2.20;;;;;;;;;;5014471;28;20049;-63
2023/08/07 14:14:14;;;;;;;1.67;1.45;;;;;;;;;;5013517;28;20113;-63
2023/08/07 14:16:40;;;;;;;3.80;1.90;;;;;;;;;;5013432;28;20127;-63
2023/08/07 14:19:06;;;;;;;7.53;2.17;;;;;;;;;;5017272;28;20408;-63
2023/08/07 14:21:32;;;;;;;3.03;1.65;;;;;;;;;;5016652;28;20037;-63
2023/08/07 14:23:58;;;;;;;3.55;1.80;;;;;;;;;;5015879;28;20100;-63
2023/08/07 14:26:24;;;;;;;3.03;1.77;;;;;;;;;;5017775;28;20049;-63
2023/08/07 14:28:50;;;;;;;3.30;1.60;;;;;;;;;;5021818;28;20049;-63
2023/08/07 14:31:16;;;;;;;2.67;1.90;;;;;;;;;;5012325;28;20053;-63
2023/08/07 14:33:42;;;;;;;3.20;1.33;;;;;;;;;;5013233;28;20046;-64
2023/08/07 14:36:08;;;;;;;2.58;1.52;;;;;;;;;;5013424;28;20046;-63
2023/08/07 14:38:34;;;;;;;2.00;1.30;;;;;;;;;;5015664;28;20045;-63
2023/08/07 14:41:02;;;;;;;3.50;1.40;;;;;;;;;;5015882;28;20114;-63